Time;durP1;ratioP1;P1;durP2;ratioP2;P2;SDS_P1;SDS_P2;PMS_P1;PMS_P2;Temp;Humidity;BMP_temperature;BMP_pressure;BME280_temperature;BME280_humidity;BME280_pressure;Samples;Min_cycle;Max_cycle;Signal;HPM_P1;HPM_P2
2022/07/12 00:00:26;;;;;;;3.63;2.70;;;;;;;17.96;100.00;102384.88;5094178;28;20460;-69
2022/07/12 00:02:51;;;;;;;3.55;2.90;;;;;;;17.93;100.00;102387.53;5094049;28;20020;-70
2022/07/12 00:05:16;;;;;;;4.22;2.80;;;;;;;18.03;100.00;102389.41;5094073;28;20152;-69
2022/07/12 00:07:42;;;;;;;4.10;3.63;;;;;;;17.94;100.00;102384.88;5094021;28;20020;-69
2022/07/12 00:10:08;;;;;;;3.63;2.97;;;;;;;18.01;100.00;102385.81;5075777;28;20032;-69
2022/07/12 00:12:34;;;;;;;3.97;3.50;;;;;;;18.08;100.00;102387.69;5093796;28;20024;-69
2022/07/12 00:14:59;;;;;;;3.83;3.13;;;;;;;18.19;100.00;102386.03;5094124;28;20157;-69
2022/07/12 00:17:24;;;;;;;4.00;2.88;;;;;;;18.12;100.00;102384.19;5093685;28;20027;-69
2022/07/12 00:19:50;;;;;;;5.85;2.50;;;;;;;18.20;100.00;102384.25;5109466;28;20015;-70
2022/07/12 00:22:16;;;;;;;4.47;3.50;;;;;;;18.13;100.00;102385.94;5096858;28;20570;-70
2022/07/12 00:24:41;;;;;;;4.07;3.33;;;;;;;18.06;100.00;102384.13;5103901;28;20045;-69
2022/07/12 00:27:07;;;;;;;3.47;3.17;;;;;;;18.02;100.00;102377.84;5113861;28;20098;-69
2022/07/12 00:29:32;;;;;;;3.80;2.88;;;;;;;17.97;100.00;102373.34;5114012;28;20452;-69
2022/07/12 00:31:58;;;;;;;3.78;3.08;;;;;;;17.96;100.00;102376.88;5110930;28;20035;-69
2022/07/12 00:34:23;;;;;;;3.72;3.05;;;;;;;17.89;100.00;102378.56;5103123;28;20023;-70
2022/07/12 00:36:48;;;;;;;5.75;3.10;;;;;;;17.79;100.00;102379.34;5098375;28;20383;-69
2022/07/12 00:39:14;;;;;;;5.95;3.60;;;;;;;17.76;100.00;102374.00;5093542;28;20062;-69
2022/07/12 00:41:39;;;;;;;3.95;2.95;;;;;;;17.71;100.00;102376.59;5093392;28;20024;-70
2022/07/12 00:44:04;;;;;;;3.92;3.17;;;;;;;17.67;100.00;102374.78;5093486;28;20052;-69
2022/07/12 00:46:31;;;;;;;4.03;3.30;;;;;;;17.77;100.00;102381.09;5093308;28;20027;-69
2022/07/12 00:48:57;;;;;;;6.07;3.88;;;;;;;17.81;100.00;102374.94;5093411;28;20028;-69
2022/07/12 00:51:22;;;;;;;6.60;3.42;;;;;;;17.75;100.00;102383.75;5092806;28;20054;-71
2022/07/12 00:53:49;;;;;;;9.32;3.35;;;;;;;17.69;100.00;102373.03;5093464;28;20536;-68
2022/07/12 00:56:15;;;;;;;3.15;2.88;;;;;;;17.64;100.00;102370.31;5098070;28;20037;-68
2022/07/12 00:58:41;;;;;;;4.57;3.53;;;;;;;17.66;100.00;102372.97;5101702;28;20024;-70
2022/07/12 01:01:08;;;;;;;6.00;3.80;;;;;;;17.64;100.00;102374.75;5112634;28;20168;-70
2022/07/12 01:03:34;;;;;;;4.05;3.40;;;;;;;17.68;100.00;102371.25;5075285;28;20472;-69
2022/07/12 01:05:59;;;;;;;3.78;3.38;;;;;;;17.67;100.00;102369.44;5075041;28;20020;-69
2022/07/12 01:08:26;;;;;;;5.50;3.50;;;;;;;17.62;100.00;102373.81;5099726;28;20020;-70
2022/07/12 01:10:52;;;;;;;5.35;3.40;;;;;;;17.64;100.00;102367.66;5099936;28;20134;-70
2022/07/12 01:13:17;;;;;;;6.15;4.40;;;;;;;17.76;100.00;102363.34;5093078;28;20142;-70
2022/07/12 01:15:44;;;;;;;4.75;4.30;;;;;;;17.82;100.00;102358.06;5075147;28;20028;-69
2022/07/12 01:18:10;;;;;;;5.47;4.57;;;;;;;17.81;100.00;102357.19;5094532;28;20031;-69
2022/07/12 01:20:36;;;;;;;5.68;3.92;;;;;;;17.81;100.00;102346.53;5091875;28;20028;-69
2022/07/12 01:23:03;;;;;;;5.40;4.22;;;;;;;17.75;100.00;102341.13;5098937;28;20028;-69
2022/07/12 01:25:28;;;;;;;4.63;4.20;;;;;;;17.85;100.00;102342.13;5109655;28;20027;-70
2022/07/12 01:27:54;;;;;;;7.50;4.45;;;;;;;17.85;100.00;102348.38;5113284;28;20027;-70
2022/07/12 01:30:20;;;;;;;11.40;4.03;;;;;;;17.76;100.00;102350.94;5113477;28;20034;-69
2022/07/12 01:32:45;;;;;;;5.20;3.90;;;;;;;17.62;100.00;102355.19;5113196;28;20028;-69
2022/07/12 01:35:11;;;;;;;4.65;3.97;;;;;;;17.47;100.00;102366.53;5096439;28;20016;-69
2022/07/12 01:37:38;;;;;;;6.18;4.15;;;;;;;17.51;100.00;102363.03;5092815;28;20099;-70
2022/07/12 01:40:07;;;;;;;4.45;4.05;;;;;;;17.55;100.00;102359.53;5096011;28;20024;-69
2022/07/12 01:42:32;;;;;;;6.18;4.15;;;;;;;17.55;100.00;102359.53;5102736;28;20028;-70
2022/07/12 01:44:59;;;;;;;5.60;4.07;;;;;;;17.66;100.00;102368.56;5092748;28;20020;-70
2022/07/12 01:47:27;;;;;;;6.32;4.28;;;;;;;17.60;100.00;102364.94;5103537;28;20474;-69
2022/07/12 01:49:53;;;;;;;12.73;4.45;;;;;;;17.48;100.00;102374.53;5108734;28;20024;-69
2022/07/12 01:52:19;;;;;;;7.80;4.70;;;;;;;17.40;100.00;102370.91;5092566;28;20487;-69
2022/07/12 01:54:45;;;;;;;8.00;4.32;;;;;;;17.26;100.00;102385.81;5097720;28;20077;-69
2022/07/12 01:57:10;;;;;;;4.65;4.13;;;;;;;17.17;100.00;102384.81;5103068;28;20422;-69
2022/07/12 01:59:36;;;;;;;4.93;4.53;;;;;;;17.18;100.00;102381.25;5096392;28;20039;-68
2022/07/12 02:02:02;;;;;;;4.97;3.95;;;;;;;17.12;100.00;102374.94;5093093;28;20135;-69
2022/07/12 02:04:28;;;;;;;5.32;4.35;;;;;;;17.00;100.00;102387.22;5098743;28;20085;-70
2022/07/12 02:06:54;;;;;;;7.32;4.00;;;;;;;17.02;100.00;102389.88;5108572;28;20471;-69
2022/07/12 02:09:20;;;;;;;6.55;4.57;;;;;;;16.98;100.00;102388.06;5096187;28;20063;-68
2022/07/12 02:11:46;;;;;;;4.72;4.32;;;;;;;16.95;100.00;102394.22;5096289;28;20531;-69
2022/07/12 02:14:12;;;;;;;5.65;4.65;;;;;;;16.96;100.00;102392.47;5110847;28;20026;-69
2022/07/12 02:16:38;;;;;;;5.43;4.40;;;;;;;16.89;100.00;102386.16;5085308;28;20015;-69
2022/07/12 02:19:04;;;;;;;5.32;4.13;;;;;;;16.85;100.00;102387.84;5111897;28;20040;-68
2022/07/12 02:21:29;;;;;;;5.53;4.47;;;;;;;16.79;100.00;102378.88;5105784;28;20022;-70
2022/07/12 02:23:55;;;;;;;5.50;4.55;;;;;;;16.82;100.00;102377.16;5099601;28;20035;-70
2022/07/12 02:26:20;;;;;;;4.93;4.32;;;;;;;16.94;100.00;102372.94;5116412;28;20074;-69
2022/07/12 02:28:46;;;;;;;6.68;4.57;;;;;;;16.98;100.00;102362.38;5116270;28;20024;-69
2022/07/12 02:31:11;;;;;;;6.80;4.03;;;;;;;16.93;100.00;102363.16;5116241;28;20023;-69
2022/07/12 02:33:37;;;;;;;6.65;5.43;;;;;;;16.97;100.00;102362.31;5116314;28;20020;-69
2022/07/12 02:36:03;;;;;;;6.30;5.28;;;;;;;16.93;100.00;102371.13;5116283;28;20398;-69
2022/07/12 02:38:28;;;;;;;7.18;4.85;;;;;;;16.97;100.00;102378.28;5116003;28;20031;-70
2022/07/12 02:40:54;;;;;;;7.10;5.45;;;;;;;17.02;100.00;102380.16;5116154;28;20023;-69
2022/07/12 02:43:24;;;;;;;5.53;4.63;;;;;;;17.09;100.00;102375.84;5097695;28;20019;-70
2022/07/12 02:45:51;;;;;;;6.97;5.05;;;;;;;17.08;100.00;102368.72;5116095;28;20020;-69
2022/07/12 02:48:17;;;;;;;8.23;5.00;;;;;;;17.04;100.00;102372.19;5116006;28;20030;-70
2022/07/12 02:50:43;;;;;;;6.35;5.60;;;;;;;17.11;100.00;102370.53;5116012;28;20046;-70
2022/07/12 02:53:10;;;;;;;5.55;4.60;;;;;;;17.02;100.00;102379.25;5115637;28;20513;-69
2022/07/12 02:55:36;;;;;;;5.55;5.05;;;;;;;16.89;100.00;102379.91;5111393;28;20048;-69
2022/07/12 02:58:02;;;;;;;7.00;5.50;;;;;;;16.80;100.00;102388.66;5115604;28;20020;-69
2022/07/12 03:00:28;;;;;;;6.03;5.00;;;;;;;16.74;100.00;102386.78;5104906;28;20024;-69
2022/07/12 03:02:54;;;;;;;5.85;5.28;;;;;;;16.67;100.00;102382.22;5095303;28;20031;-69
2022/07/12 03:05:19;;;;;;;5.97;4.60;;;;;;;16.63;100.00;102385.69;5095197;28;20032;-70
2022/07/12 03:07:45;;;;;;;7.25;5.30;;;;;;;16.63;100.00;102380.38;5095156;28;20036;-69
2022/07/12 03:10:10;;;;;;;5.47;4.97;;;;;;;16.56;100.00;102381.16;5095178;28;20475;-70
2022/07/12 03:12:36;;;;;;;8.63;6.28;;;;;;;16.56;100.00;102381.16;5108557;28;20506;-70
2022/07/12 03:15:02;;;;;;;6.82;5.38;;;;;;;16.56;100.00;102378.50;5095040;28;20532;-69
2022/07/12 03:17:27;;;;;;;6.05;5.45;;;;;;;16.43;100.00;102383.63;5094922;28;20070;-70
2022/07/12 03:19:53;;;;;;;7.43;5.43;;;;;;;16.45;100.00;102381.88;5110379;28;20526;-69
2022/07/12 03:22:18;;;;;;;6.03;5.43;;;;;;;16.46;100.00;102381.00;5108646;28;20471;-69
2022/07/12 03:24:43;;;;;;;6.68;5.95;;;;;;;16.46;100.00;102390.75;5094761;28;20055;-69
2022/07/12 03:27:09;;;;;;;7.22;6.20;;;;;;;16.49;100.00;102389.06;5094773;28;20016;-68
2022/07/12 03:29:35;;;;;;;7.50;6.18;;;;;;;16.51;100.00;102392.63;5094726;28;20062;-69
2022/07/12 03:32:00;;;;;;;9.88;6.07;;;;;;;16.48;100.00;102384.59;5094849;28;20390;-70
2022/07/12 03:34:26;;;;;;;6.38;5.50;;;;;;;16.62;100.00;102394.56;5094670;28;20035;-70
2022/07/12 03:36:52;;;;;;;6.28;5.68;;;;;;;16.63;100.00;102391.03;5101446;28;20103;-70
2022/07/12 03:39:17;;;;;;;6.68;6.00;;;;;;;16.58;100.00;102377.69;5114891;28;20020;-69
2022/07/12 03:41:42;;;;;;;6.35;5.75;;;;;;;16.56;100.00;102383.84;5114876;28;20401;-69
2022/07/12 03:44:08;;;;;;;6.95;5.25;;;;;;;16.58;100.00;102390.06;5115008;28;20123;-70
2022/07/12 03:46:33;;;;;;;6.82;5.47;;;;;;;16.63;100.00;102388.38;5114775;28;20073;-68
2022/07/12 03:48:59;;;;;;;10.00;6.22;;;;;;;16.58;100.00;102393.63;5114797;28;20482;-69
2022/07/12 03:51:25;;;;;;;7.80;6.00;;;;;;;16.52;100.00;102397.06;5114549;28;20047;-69
2022/07/12 03:53:50;;;;;;;10.80;6.20;;;;;;;16.65;100.00;102394.63;5113782;28;20510;-69
2022/07/12 03:57:13;;;;;;;6.28;5.68;;;;;;;16.57;100.00;102397.13;5114183;28;20034;-70
2022/07/12 03:59:01;;;;;;;6.78;6.18;;;;;;;16.62;100.00;102395.47;5114189;28;20059;-69
2022/07/12 04:01:27;;;;;;;6.30;5.68;;;;;;;16.72;100.00;102393.84;5114625;28;20102;-69
2022/07/12 04:03:52;;;;;;;7.22;6.45;;;;;;;16.78;100.00;102385.97;5114340;28;20019;-70
2022/07/12 04:06:18;;;;;;;6.82;5.88;;;;;;;16.79;100.00;102387.75;5114471;28;20116;-69
2022/07/12 04:08:43;;;;;;;7.70;5.93;;;;;;;16.85;100.00;102393.16;5114254;28;20482;-70
2022/07/12 04:11:08;;;;;;;6.32;5.72;;;;;;;16.88;100.00;102394.97;5114429;28;20073;-69
2022/07/12 04:13:34;;;;;;;7.13;6.35;;;;;;;16.92;100.00;102394.19;5114293;28;20019;-69
2022/07/12 04:15:59;;;;;;;7.38;6.40;;;;;;;16.97;100.00;102397.81;5113455;28;20058;-70
2022/07/12 04:18:24;;;;;;;8.18;6.82;;;;;;;17.06;100.00;102399.69;5104705;28;20028;-69
2022/07/12 04:20:50;;;;;;;7.95;6.50;;;;;;;17.13;100.00;102393.63;5102423;28;20108;-69
2022/07/12 04:23:15;;;;;;;7.22;6.03;;;;;;;17.14;100.00;102390.06;5100457;28;20425;-69
2022/07/12 04:25:40;;;;;;;7.25;6.50;;;;;;;17.26;100.00;102391.13;5113394;28;20026;-69
2022/07/12 04:28:06;;;;;;;8.98;6.65;;;;;;;17.30;100.00;102395.63;5113968;28;20023;-68
2022/07/12 04:30:31;;;;;;;10.07;6.32;;;;;;;17.38;100.00;102393.94;5096005;28;20534;-70
2022/07/12 04:32:56;;;;;;;9.38;6.30;;;;;;;17.45;100.00;102395.81;5099196;28;20048;-69
2022/07/12 04:35:22;;;;;;;7.45;6.40;;;;;;;17.47;100.00;102399.41;5093663;28;20027;-69
2022/07/12 04:37:47;;;;;;;9.95;6.93;;;;;;;17.48;100.00;102393.16;5093466;28;20052;-69
2022/07/12 04:40:12;;;;;;;7.85;6.22;;;;;;;17.58;100.00;102396.88;5093520;28;20069;-70
2022/07/12 04:42:38;;;;;;;10.18;6.50;;;;;;;17.64;100.00;102394.25;5093490;28;20020;-69
2022/07/12 04:45:03;;;;;;;9.80;7.20;;;;;;;17.64;100.00;102394.25;5093490;28;20023;-69
2022/07/12 04:47:29;;;;;;;7.28;6.57;;;;;;;17.74;100.00;102389.06;5093210;28;20062;-70
2022/07/12 04:49:54;;;;;;;7.38;6.63;;;;;;;17.77;100.00;102397.97;5093512;28;20341;-69
2022/07/12 04:52:19;;;;;;;6.95;6.25;;;;;;;17.85;100.00;102388.31;5093178;28;20074;-70
2022/07/12 04:54:46;;;;;;;7.45;6.75;;;;;;;17.87;100.00;102393.66;5094850;28;20031;-69
2022/07/12 04:57:11;;;;;;;9.57;6.38;;;;;;;17.89;100.00;102391.88;5093170;28;20023;-69
2022/07/12 04:59:36;;;;;;;8.88;7.13;;;;;;;17.90;100.00;102396.34;5093240;28;20490;-69
2022/07/12 05:02:02;;;;;;;11.45;6.53;;;;;;;17.93;100.00;102388.41;5093186;28;20020;-69
2022/07/12 05:04:27;;;;;;;7.80;6.97;;;;;;;17.96;100.00;102393.78;5081768;28;20037;-71
2022/07/12 05:06:52;;;;;;;9.25;6.93;;;;;;;18.01;100.00;102396.47;5113597;28;20065;-69
2022/07/12 05:09:18;;;;;;;9.30;7.22;;;;;;;18.03;100.00;102397.41;5113314;28;20051;-69
2022/07/12 05:11:43;;;;;;;8.63;6.55;;;;;;;18.05;100.00;102402.75;5113589;28;20352;-69
2022/07/12 05:14:09;;;;;;;8.23;7.43;;;;;;;18.06;100.00;102404.53;5113486;28;20024;-69
2022/07/12 05:16:34;;;;;;;8.73;7.28;;;;;;;18.07;100.00;102407.22;5113373;28;20035;-69
2022/07/12 05:19:01;;;;;;;8.98;7.40;;;;;;;18.04;100.00;102407.16;5107083;28;20421;-70
2022/07/12 05:21:26;;;;;;;10.52;7.57;;;;;;;18.07;100.00;102411.63;5093007;28;20028;-69
2022/07/12 05:23:52;;;;;;;8.40;7.60;;;;;;;18.09;100.00;102416.09;5112838;28;20559;-69
2022/07/12 05:26:18;;;;;;;11.38;7.68;;;;;;;18.13;100.00;102415.25;5100001;28;20038;-68
2022/07/12 05:28:44;;;;;;;12.73;7.57;;;;;;;18.18;100.00;102418.88;5092962;28;20103;-70
2022/07/12 05:31:10;;;;;;;9.63;8.02;;;;;;;18.24;100.00;102419.81;5106033;28;20524;-69
2022/07/12 05:33:35;;;;;;;9.60;7.68;;;;;;;18.31;100.00;102425.22;5089058;28;20036;-69
2022/07/12 05:36:01;;;;;;;10.90;8.15;;;;;;;18.40;100.00;102427.06;5093620;28;20383;-69
2022/07/12 05:38:26;;;;;;;15.48;7.97;;;;;;;18.47;100.00;102426.25;5096902;28;20380;-69
2022/07/12 05:40:52;;;;;;;8.65;7.38;;;;;;;18.53;100.00;102418.31;5096869;28;20024;-69
2022/07/12 05:43:17;;;;;;;13.05;8.48;;;;;;;18.60;100.00;102426.34;5096797;28;20074;-68
2022/07/12 05:45:42;;;;;;;9.68;8.00;;;;;;;18.64;100.00;102428.19;5096891;28;20020;-70
2022/07/12 05:48:08;;;;;;;8.05;7.10;;;;;;;18.72;100.00;102429.16;5096679;28;20024;-70
2022/07/12 05:50:33;;;;;;;11.52;8.25;;;;;;;18.77;100.00;102430.03;5096762;28;20069;-70
2022/07/12 05:55:44;;;;;;;8.57;6.78;;;;;;;18.86;100.00;102424.78;5098027;28;20035;-69
2022/07/12 05:58:10;;;;;;;9.93;8.00;;;;;;;18.91;100.00;102430.22;5096704;28;20383;-69
2022/07/12 06:00:36;;;;;;;9.75;7.70;;;;;;;18.95;100.00;102431.09;5096362;28;20016;-69
2022/07/12 06:03:01;;;;;;;14.85;8.55;;;;;;;18.99;100.00;102422.25;5096362;28;20028;-69
2022/07/12 06:05:27;;;;;;;9.60;8.63;;;;;;;18.98;100.00;102429.38;5096655;28;20031;-69
2022/07/12 06:07:52;;;;;;;12.10;8.65;;;;;;;19.00;100.00;102429.38;5096491;28;20387;-69
2022/07/12 06:10:18;;;;;;;9.90;8.68;;;;;;;19.01;100.00;102426.69;5111247;28;20106;-69
2022/07/12 06:12:43;;;;;;;12.40;9.13;;;;;;;18.99;100.00;102427.56;5098582;28;20403;-69
2022/07/12 06:15:09;;;;;;;10.23;9.00;;;;;;;18.97;100.00;102432.03;5097727;28;20031;-69
2022/07/12 06:17:34;;;;;;;13.80;8.30;;;;;;;18.98;100.00;102433.81;5103967;28;20031;-69
2022/07/12 06:20:00;;;;;;;9.60;8.60;;;;;;;18.98;100.00;102437.38;5116639;28;20024;-70
2022/07/12 06:22:25;;;;;;;10.65;8.57;;;;;;;19.01;100.00;102437.38;5108978;28;20111;-69
2022/07/12 06:24:50;;;;;;;12.07;8.68;;;;;;;19.05;100.00;102438.31;5110413;28;20072;-70
2022/07/12 06:27:16;;;;;;;10.23;8.95;;;;;;;19.11;100.00;102429.44;5116575;28;20023;-68
2022/07/12 06:29:41;;;;;;;9.43;8.00;;;;;;;19.16;100.00;102435.72;5116301;28;20054;-69
2022/07/12 06:32:07;;;;;;;16.35;9.13;;;;;;;19.19;100.00;102436.63;5110079;28;20027;-69
2022/07/12 06:34:36;;;;;;;13.80;10.00;;;;;;;19.21;100.00;102437.50;5109871;28;20058;-69
2022/07/12 06:37:01;;;;;;;12.88;9.95;;;;;;;19.27;100.00;102441.09;5095710;28;20528;-69
2022/07/12 06:39:27;;;;;;;12.18;9.57;;;;;;;19.34;100.00;102437.59;5096027;28;20024;-69
2022/07/12 06:41:52;;;;;;;11.82;9.23;;;;;;;19.43;100.00;102442.97;5095911;28;20535;-70
2022/07/12 06:44:17;;;;;;;12.93;9.85;;;;;;;19.42;100.00;102449.19;5109407;28;20024;-70
2022/07/12 06:46:43;;;;;;;11.85;9.45;;;;;;;19.48;100.00;102454.56;5095674;28;20032;-69
2022/07/12 06:49:08;;;;;;;9.27;8.20;;;;;;;19.53;100.00;102462.59;5094927;28;20486;-70
2022/07/12 06:51:33;;;;;;;11.52;7.93;;;;;;;19.62;100.00;102456.44;5095594;28;20107;-69
2022/07/12 06:53:59;;;;;;;9.65;7.45;;;;;;;19.69;100.00;102459.13;5097312;28;20068;-68
2022/07/12 06:56:24;;;;;;;13.60;7.95;;;;;;;19.74;100.00;102456.47;5116061;28;20073;-70
2022/07/12 06:58:49;;;;;;;12.50;8.18;;;;;;;19.82;100.00;102456.56;5097271;28;20023;-69
2022/07/12 07:01:14;;;;;;;8.00;7.03;;;;;;;19.95;100.00;102454.81;5095563;28;20024;-70
2022/07/12 07:03:40;;;;;;;10.57;7.78;;;;;;;20.06;100.00;102453.03;5095345;28;20463;-68
2022/07/12 07:06:05;;;;;;;9.77;8.13;;;;;;;20.09;100.00;102445.06;5095741;28;20125;-69
2022/07/12 07:08:31;;;;;;;10.75;8.43;;;;;;;20.13;100.00;102445.94;5095155;28;20103;-69
2022/07/12 07:10:56;;;;;;;9.63;8.18;;;;;;;20.14;100.00;102445.94;5095393;28;20028;-69
2022/07/12 07:13:22;;;;;;;10.60;6.82;;;;;;;20.24;100.00;102445.97;5095499;28;20053;-68
2022/07/12 07:15:47;;;;;;;7.97;6.95;;;;;;;20.37;100.00;102448.69;5095386;28;20102;-69
2022/07/12 07:18:12;;;;;;;12.70;7.35;;;;;;;20.54;100.00;102443.34;5108387;28;20034;-70
2022/07/12 07:20:40;;;;;;;10.90;6.75;;;;;;;20.72;100.00;102445.16;5101996;28;20025;-70
2022/07/12 07:23:06;;;;;;;9.35;5.95;;;;;;;20.87;100.00;102446.91;5102085;28;20027;-69
2022/07/12 07:25:31;;;;;;;10.77;5.97;;;;;;;21.06;100.00;102441.56;5115439;28;20019;-69
2022/07/12 07:27:56;;;;;;;6.30;5.57;;;;;;;21.18;100.00;102438.84;5115373;28;20026;-68
2022/07/12 07:33:06;;;;;;;7.00;4.80;;;;;;;21.34;100.00;102444.19;5115267;28;20031;-69
2022/07/12 07:35:31;;;;;;;7.53;5.00;;;;;;;21.29;100.00;102436.16;5115237;28;20387;-69
2022/07/12 07:37:57;;;;;;;5.93;4.40;;;;;;;21.25;100.00;102438.84;5115139;28;20477;-69
2022/07/12 07:40:22;;;;;;;5.30;4.25;;;;;;;21.26;100.00;102440.66;5115057;28;20027;-69
2022/07/12 07:42:47;;;;;;;10.15;4.60;;;;;;;21.19;100.00;102439.75;5115128;28;20027;-69
2022/07/12 07:45:13;;;;;;;8.63;4.40;;;;;;;21.09;100.00;102428.16;5096881;28;20026;-69
2022/07/12 07:47:46;;;;;;;7.47;4.35;;;;;;;21.14;100.00;102436.19;5115107;28;20110;-69
2022/07/12 07:50:11;;;;;;;;;;;;;;;21.21;100.00;102446.88;5115552;28;20027;-69
2022/07/12 07:52:36;;;;;;;7.73;4.30;;;;;;;21.33;100.00;102437.03;5114748;28;20006;-69
2022/07/12 07:55:02;;;;;;;5.72;3.55;;;;;;;21.49;100.00;102435.22;5113924;28;20265;-69
2022/07/12 07:57:28;;;;;;;7.68;3.97;;;;;;;21.63;100.00;102441.44;5114880;28;20035;-68
2022/07/12 07:59:54;;;;;;;5.75;3.10;;;;;;;21.80;100.00;102443.13;5103788;28;20392;-69
2022/07/12 08:02:19;;;;;;;5.03;3.33;;;;;;;21.80;100.00;102443.13;5094122;28;20028;-69
2022/07/12 08:04:44;;;;;;;2.95;2.65;;;;;;;21.92;100.00;102442.19;5094528;28;20032;-69
2022/07/12 08:07:10;;;;;;;5.60;3.25;;;;;;;21.97;100.00;102440.38;5094219;28;20087;-70
2022/07/12 08:09:35;;;;;;;3.45;3.15;;;;;;;22.10;100.00;102439.41;5094151;28;20020;-70
2022/07/12 08:12:00;;;;;;;5.68;3.50;;;;;;;22.10;100.00;102452.81;5094038;28;20030;-70
2022/07/12 08:14:26;;;;;;;6.30;3.20;;;;;;;22.07;100.00;102452.84;5076041;28;20157;-70
2022/07/12 08:16:51;;;;;;;4.90;3.00;;;;;;;22.22;100.00;102452.75;5094066;28;20033;-68
2022/07/12 08:19:17;;;;;;;3.88;3.25;;;;;;;22.27;100.00;102451.81;5086811;28;20042;-68
2022/07/12 08:21:42;;;;;;;6.88;3.55;;;;;;;22.32;100.00;102456.25;5094696;28;20031;-69
2022/07/12 08:24:08;;;;;;;9.98;4.32;;;;;;;22.32;100.00;102453.56;5101023;28;20053;-70
2022/07/12 08:26:33;;;;;;;6.65;3.40;;;;;;;22.37;100.00;102450.91;5109162;28;20114;-69
2022/07/12 08:28:58;;;;;;;5.57;3.20;;;;;;;22.50;100.00;102447.19;5095921;28;20382;-69
2022/07/12 08:31:24;;;;;;;4.03;3.63;;;;;;;22.52;100.00;102442.72;5114182;28;20034;-69
2022/07/12 08:33:49;;;;;;;3.80;3.35;;;;;;;22.66;100.00;102441.72;5114066;28;20062;-69
2022/07/12 08:36:15;;;;;;;7.50;4.05;;;;;;;22.80;100.00;102442.47;5114005;28;20024;-70
2022/07/12 08:38:44;;;;;;;8.20;4.45;;;;;;;22.76;100.00;102448.78;5114098;28;20533;-69
2022/07/12 08:41:16;;;;;;;5.13;3.53;;;;;;;22.74;100.00;102445.22;5113939;28;20026;-70
2022/07/12 08:43:42;;;;;;;9.93;4.20;;;;;;;22.69;100.00;102447.97;5114242;28;20027;-69
2022/07/12 08:46:10;;;;;;;5.97;3.55;;;;;;;22.83;100.00;102450.53;5113892;28;20191;-70
2022/07/12 08:48:36;;;;;;;6.47;3.70;;;;;;;23.00;100.00;102444.09;5114131;28;20107;-70
2022/07/12 08:51:04;;;;;;;5.15;4.00;;;;;;;23.05;100.00;102444.94;5114046;28;20114;-69
2022/07/12 08:53:30;;;;;;;4.95;3.58;;;;;;;23.20;100.00;102439.44;5103482;28;20044;-69
2022/07/12 08:55:56;;;;;;;4.75;2.85;;;;;;;23.46;100.00;102438.25;5093407;28;20043;-69
2022/07/12 08:58:21;;;;;;;4.15;2.72;;;;;;;23.62;100.00;102432.72;5093273;28;20428;-69
2022/07/12 09:00:46;;;;;;;6.03;3.58;;;;;;;23.75;100.00;102436.97;5093650;28;20036;-69
2022/07/12 09:03:14;;;;;;;3.28;2.92;;;;;;;23.76;100.00;102438.78;5093701;28;20028;-69
2022/07/12 09:05:47;;;;;;;7.32;3.40;;;;;;;23.74;100.00;102435.22;5106815;28;20059;-70
2022/07/12 09:08:12;;;;;;;4.85;3.30;;;;;;;23.74;100.00;102441.47;5093477;28;20031;-69
2022/07/12 09:10:52;;;;;;;4.82;3.13;;;;;;;23.81;100.00;102446.78;5074906;28;20021;-69
2022/07/12 09:13:18;;;;;;;5.63;2.88;;;;;;;23.67;100.00;102455.00;5093462;28;20031;-68
2022/07/12 09:15:44;;;;;;;3.33;3.03;;;;;;;23.84;100.00;102453.00;5093147;28;20031;-69
2022/07/12 09:18:25;;;;;;;5.03;2.70;;;;;;;24.01;100.00;102460.88;5094607;28;20028;-70
2022/07/12 09:20:52;;;;;;;4.53;2.95;;;;;;;24.03;100.00;102447.41;5095185;28;20026;-69
2022/07/12 09:23:17;;;;;;;5.32;2.67;;;;;;;24.12;96.64;102447.28;5099843;28;20024;-69
2022/07/12 09:25:44;;;;;;;5.07;2.30;;;;;;;24.22;97.50;102448.91;5113850;28;20067;-70
2022/07/12 09:28:10;;;;;;;5.22;2.90;;;;;;;24.32;97.02;102440.69;5113544;28;20027;-70
2022/07/12 09:30:46;;;;;;;4.63;3.45;;;;;;;24.44;95.96;102436.94;5113528;28;20041;-70
2022/07/12 09:36:07;;;;;;;3.17;2.50;;;;;;;24.41;97.27;102436.06;5113726;28;20039;-70
2022/07/12 09:38:34;;;;;;;4.20;2.65;;;;;;;24.51;95.04;102439.50;5113884;28;20123;-70
2022/07/12 09:41:00;;;;;;;5.13;3.03;;;;;;;24.66;94.74;102445.56;5113441;28;20024;-70
2022/07/12 09:43:26;;;;;;;3.83;2.60;;;;;;;24.66;93.74;102437.47;5113549;28;20054;-70
2022/07/12 09:45:51;;;;;;;3.45;2.22;;;;;;;24.85;94.23;102440.75;5113997;28;20018;-70
2022/07/12 09:48:19;;;;;;;4.70;3.13;;;;;;;25.06;95.18;102445.75;5113303;28;20024;-69
2022/07/12 09:50:50;;;;;;;5.18;3.60;;;;;;;25.24;90.33;102446.31;5113167;28;20043;-69
2022/07/12 09:53:28;;;;;;;9.07;3.10;;;;;;;25.30;89.63;102426.44;5113391;28;20052;-69
2022/07/12 09:55:54;;;;;;;4.25;3.63;;;;;;;25.34;90.04;102428.19;5108921;28;20414;-69
2022/07/12 09:58:25;;;;;;;4.15;3.72;;;;;;;25.22;85.75;102438.25;5092753;28;20020;-69
2022/07/12 10:00:52;;;;;;;3.95;2.88;;;;;;;25.45;86.74;102438.75;5092810;28;20421;-70
2022/07/12 10:03:21;;;;;;;5.30;3.53;;;;;;;25.61;87.05;102439.31;5092945;28;20047;-69
2022/07/12 10:05:47;;;;;;;5.97;3.42;;;;;;;25.45;88.43;102441.44;5092688;28;20028;-69
2022/07/12 10:08:13;;;;;;;5.78;3.20;;;;;;;25.59;89.32;102442.91;5093000;28;20061;-69
2022/07/12 10:10:39;;;;;;;5.63;3.28;;;;;;;25.88;86.36;102449.50;5092876;28;20489;-69
2022/07/12 10:13:04;;;;;;;9.45;3.63;;;;;;;25.93;85.86;102446.69;5092718;28;20032;-70
2022/07/12 10:15:32;;;;;;;6.45;3.35;;;;;;;26.08;86.14;102446.38;5092682;28;20046;-70
2022/07/12 10:18:00;;;;;;;7.78;2.80;;;;;;;26.22;85.31;102448.78;5074456;28;20043;-70
2022/07/12 10:20:26;;;;;;;5.68;2.95;;;;;;;25.98;83.58;102446.59;5092641;28;20074;-70
2022/07/12 10:23:16;;;;;;;9.75;2.50;;;;;;;26.05;84.04;102456.38;5086055;28;20536;-70
2022/07/12 10:25:42;;;;;;;5.82;3.00;;;;;;;26.10;83.73;102446.38;5096149;28;20028;-70
2022/07/12 10:28:07;;;;;;;4.38;2.15;;;;;;;26.05;87.20;102450.97;5096345;28;20032;-70
2022/07/12 10:30:52;;;;;;;7.15;3.10;;;;;;;26.13;84.95;102445.41;5096119;28;20016;-70
2022/07/12 10:33:22;;;;;;;2.95;2.38;;;;;;;26.05;85.28;102445.59;5098127;28;20106;-70
2022/07/12 10:36:06;;;;;;;12.15;2.88;;;;;;;26.16;84.11;102448.91;5116648;28;20028;-70
2022/07/12 10:38:33;;;;;;;3.97;2.40;;;;;;;26.19;83.39;102448.81;5095939;28;20111;-70
2022/07/12 10:41:19;;;;;;;5.50;2.70;;;;;;;26.41;81.67;102448.31;5095910;28;20039;-70
2022/07/12 10:46:28;;;;;;;5.90;2.70;;;;;;;26.58;75.70;102454.19;5111595;28;20085;-70
2022/07/12 10:49:26;;;;;;;8.15;3.72;;;;;;;26.72;75.27;102455.69;5095915;28;20016;-70
2022/07/12 10:52:10;;;;;;;4.43;2.67;;;;;;;26.89;75.05;102449.84;5104704;28;20485;-70
2022/07/12 10:54:42;;;;;;;3.10;2.28;;;;;;;27.14;75.64;102444.66;5113924;28;20028;-70
2022/07/12 10:57:08;;;;;;;2.50;2.30;;;;;;;27.21;71.27;102451.69;5116448;28;20569;-68
2022/07/12 10:59:36;;;;;;;4.72;2.28;;;;;;;27.19;71.35;102447.25;5116466;28;20276;-69
2022/07/12 11:02:02;;;;;;;4.68;3.15;;;;;;;27.11;69.49;102443.88;5116549;28;20041;-69
2022/07/12 11:04:28;;;;;;;7.20;3.50;;;;;;;27.18;68.54;102435.53;5116272;28;20098;-70
2022/07/12 11:06:58;;;;;;;3.95;2.67;;;;;;;27.36;72.38;102454.84;5116194;28;20540;-70
2022/07/12 11:09:25;;;;;;;4.90;2.97;;;;;;;27.44;66.40;102442.03;5109680;28;20066;-70
2022/07/12 11:11:52;;;;;;;6.15;2.80;;;;;;;27.32;65.48;102436.94;5095658;28;20483;-71
2022/07/12 11:14:30;;;;;;;5.13;1.95;;;;;;;27.43;61.72;102435.75;5077514;28;20024;-70
2022/07/12 11:16:57;;;;;;;4.43;2.63;;;;;;;27.77;61.76;102429.31;5097061;28;20032;-71
2022/07/12 11:19:25;;;;;;;6.68;2.63;;;;;;;28.01;64.90;102432.25;5107252;28;20107;-70
2022/07/12 11:21:55;;;;;;;7.22;3.95;;;;;;;28.17;63.53;102437.16;5112074;28;20027;-68
2022/07/12 11:24:31;;;;;;;9.00;3.60;;;;;;;28.29;65.48;102438.59;5115965;28;20031;-69